Time;durP1;ratioP1;P1;durP2;ratioP2;P2;SDS_P1;SDS_P2;PMS_P1;PMS_P2;Temp;Humidity;BMP_temperature;BMP_pressure;BME280_temperature;BME280_humidity;BME280_pressure;Samples;Min_cycle;Max_cycle;Signal;HPM_P1;HPM_P2
2022/12/09 00:01:03;;;;;;;35.22;18.98;;;0.30;99.90;;;;;;5017091;28;20520;-64
2022/12/09 00:03:29;;;;;;;39.47;20.65;;;0.30;99.90;;;;;;5014663;28;20047;-64
2022/12/09 00:05:56;;;;;;;34.95;20.08;;;0.30;99.90;;;;;;5014745;28;20052;-63
2022/12/09 00:08:23;;;;;;;35.35;19.35;;;0.30;99.90;;;;;;5016169;28;20129;-64
2022/12/09 00:10:50;;;;;;;37.25;20.38;;;0.30;99.90;;;;;;5015746;28;20134;-64
2022/12/09 00:13:17;;;;;;;;;;;0.30;99.90;;;;;;5015264;28;20049;-63
2022/12/09 00:15:44;;;;;;;31.63;17.55;;;0.30;99.90;;;;;;5016658;28;20449;-64
2022/12/09 00:18:11;;;;;;;33.10;18.02;;;0.30;99.90;;;;;;5014070;28;20315;-64
2022/12/09 00:20:38;;;;;;;;;;;0.40;99.90;;;;;;5017095;28;20049;-63
2022/12/09 00:23:05;;;;;;;43.08;18.83;;;0.40;99.90;;;;;;5013961;28;19924;-63
2022/12/09 00:25:31;;;;;;;33.95;18.08;;;0.40;99.90;;;;;;5014154;28;20554;-64
2022/12/09 00:27:58;;;;;;;34.25;18.98;;;0.40;99.90;;;;;;5013051;28;20042;-64
2022/12/09 00:30:25;;;;;;;33.30;19.50;;;0.40;99.90;;;;;;5012043;28;20454;-64
2022/12/09 00:32:53;;;;;;;33.90;19.27;;;0.40;99.90;;;;;;5013799;28;20478;-63
2022/12/09 00:35:20;;;;;;;33.05;19.70;;;0.40;99.90;;;;;;5013957;28;20152;-63
2022/12/09 00:37:46;;;;;;;;;;;0.40;99.90;;;;;;5016085;28;20091;-63
2022/12/09 00:40:14;;;;;;;;;;;0.40;99.90;;;;;;5015625;28;20077;-63
2022/12/09 00:42:41;;;;;;;35.90;19.42;;;0.40;99.90;;;;;;5020132;28;20016;-64
2022/12/09 00:45:08;;;;;;;43.25;21.13;;;0.40;99.90;;;;;;5012735;28;20053;-64
2022/12/09 00:47:35;;;;;;;38.83;21.20;;;0.40;99.90;;;;;;5015578;28;20127;-63
2022/12/09 00:50:04;;;;;;;41.88;22.90;;;0.40;99.90;;;;;;5014846;28;20049;-64
2022/12/09 00:52:33;;;;;;;41.47;22.20;;;0.40;99.90;;;;;;5014602;28;20073;-63
2022/12/09 00:54:59;;;;;;;;;;;0.40;99.90;;;;;;5023725;28;20387;-63
2022/12/09 00:57:26;;;;;;;40.00;21.50;;;0.40;99.90;;;;;;5009922;28;19924;-64
2022/12/09 00:59:53;;;;;;;36.15;20.80;;;0.40;99.90;;;;;;5020632;28;20055;-63
2022/12/09 01:02:20;;;;;;;;;;;0.40;99.90;;;;;;5016448;28;20258;-64
2022/12/09 01:04:50;;;;;;;47.65;22.92;;;0.40;99.90;;;;;;5023290;28;19921;-64
2022/12/09 01:07:17;;;;;;;36.80;20.60;;;0.40;99.90;;;;;;5015553;28;20038;-64
2022/12/09 01:09:45;;;;;;;40.25;21.45;;;0.40;99.90;;;;;;5012129;28;20053;-64
2022/12/09 01:12:11;;;;;;;36.90;21.23;;;0.50;99.90;;;;;;5012785;28;20049;-64
2022/12/09 01:14:38;;;;;;;;;;;0.50;99.90;;;;;;5015107;28;20770;-63
2022/12/09 01:17:05;;;;;;;44.95;24.15;;;0.50;99.90;;;;;;5015713;28;19929;-64
2022/12/09 01:19:32;;;;;;;37.75;21.27;;;0.50;99.90;;;;;;5012907;28;20063;-63
2022/12/09 01:21:59;;;;;;;41.83;22.88;;;0.50;99.90;;;;;;5013847;28;20068;-63
2022/12/09 01:24:26;;;;;;;40.00;22.75;;;0.50;99.90;;;;;;5011376;28;20045;-63
2022/12/09 01:26:54;;;;;;;48.58;25.00;;;0.50;99.90;;;;;;5014953;28;20422;-63
2022/12/09 01:29:20;;;;;;;42.65;23.67;;;0.50;99.90;;;;;;5018308;28;20045;-64
2022/12/09 01:31:48;;;;;;;46.63;24.48;;;0.50;99.90;;;;;;5012934;28;20044;-62
2022/12/09 01:34:15;;;;;;;40.13;23.45;;;0.50;99.90;;;;;;5010086;28;20821;-63
2022/12/09 01:36:41;;;;;;;;;;;0.50;99.90;;;;;;5012139;28;20498;-62
2022/12/09 01:39:09;;;;;;;52.20;24.55;;;0.50;99.90;;;;;;5007804;28;20420;-63
2022/12/09 01:41:36;;;;;;;40.53;23.05;;;0.60;99.90;;;;;;5011269;28;20123;-64
2022/12/09 01:44:06;;;;;;;;;;;0.60;99.90;;;;;;5015382;28;20127;-63
2022/12/09 01:46:33;;;;;;;35.85;18.92;;;0.60;99.90;;;;;;5011349;28;20394;-66
2022/12/09 01:49:01;;;;;;;40.55;22.35;;;0.60;99.90;;;;;;5012382;28;20554;-63
2022/12/09 01:51:27;;;;;;;40.30;21.33;;;0.60;99.90;;;;;;5014107;28;20337;-64
2022/12/09 01:53:57;;;;;;;40.53;21.90;;;0.60;99.90;;;;;;5014870;28;20053;-64
2022/12/09 01:56:31;;;;;;;36.30;20.38;;;0.60;99.90;;;;;;5016305;28;20427;-63
2022/12/09 01:59:03;;;;;;;37.78;20.77;;;0.60;99.90;;;;;;5023817;28;20196;-64
2022/12/09 02:01:32;;;;;;;34.70;19.25;;;0.60;99.90;;;;;;5014596;28;20048;-63
2022/12/09 02:04:00;;;;;;;32.53;20.27;;;0.60;99.90;;;;;;5011793;28;20924;-64
2022/12/09 02:06:28;;;;;;;35.05;19.38;;;0.60;99.90;;;;;;5013664;28;20429;-63
2022/12/09 02:08:56;;;;;;;35.83;19.42;;;0.60;99.90;;;;;;5016136;28;20049;-66
2022/12/09 02:11:47;;;;;;;35.65;19.65;;;0.60;99.90;;;;;;5027585;28;20041;-66
2022/12/09 02:14:57;;;;;;;33.72;18.83;;;0.60;99.90;;;;;;5013603;28;20045;-62
2022/12/09 02:17:41;;;;;;;34.03;19.58;;;0.60;99.90;;;;;;5012756;28;20484;-63
2022/12/09 02:20:33;;;;;;;35.92;19.65;;;0.60;99.90;;;;;;5019082;28;20095;-63
2022/12/09 02:23:12;;;;;;;36.90;21.23;;;0.60;99.90;;;;;;5014273;28;20319;-64
2022/12/09 02:25:51;;;;;;;34.47;19.45;;;0.50;99.90;;;;;;5044891;28;20041;-66
2022/12/09 02:28:24;;;;;;;45.88;23.10;;;0.60;99.90;;;;;;5020897;28;20071;-65
2022/12/09 02:31:30;;;;;;;36.72;20.02;;;0.60;99.90;;;;;;5016364;28;20135;-65
2022/12/09 02:34:03;;;;;;;37.15;20.77;;;0.60;99.90;;;;;;5008063;28;20686;-66
2022/12/09 02:36:36;;;;;;;42.80;21.33;;;0.60;99.90;;;;;;5015880;28;20041;-66
2022/12/09 02:39:05;;;;;;;38.50;21.17;;;0.60;99.90;;;;;;5013462;28;20143;-65
2022/12/09 02:41:34;;;;;;;41.22;21.27;;;0.60;99.90;;;;;;5021792;28;20049;-67
2022/12/09 02:44:08;;;;;;;39.40;21.75;;;0.60;99.90;;;;;;5019689;28;20076;-68
2022/12/09 02:46:36;;;;;;;37.45;19.90;;;0.60;99.90;;;;;;5013440;28;20415;-65
2022/12/09 02:49:07;;;;;;;33.45;19.35;;;0.60;99.90;;;;;;5017977;28;20091;-65
2022/12/09 02:51:40;;;;;;;41.15;20.33;;;0.60;99.90;;;;;;5013182;28;20049;-66
2022/12/09 02:54:16;;;;;;;37.83;19.63;;;0.50;99.90;;;;;;5013537;28;20187;-65
2022/12/09 02:56:54;;;;;;;36.70;19.55;;;0.60;99.90;;;;;;5010908;28;20045;-65
2022/12/09 02:59:22;;;;;;;30.15;18.27;;;0.50;99.90;;;;;;5013681;28;20073;-66
2022/12/09 03:02:34;;;;;;;34.30;20.00;;;0.50;99.90;;;;;;5009293;28;20221;-66
2022/12/09 03:05:20;;;;;;;32.35;18.73;;;0.50;99.90;;;;;;5012173;28;20064;-64
2022/12/09 03:08:00;;;;;;;36.00;20.63;;;0.50;99.90;;;;;;5020137;28;20463;-64
2022/12/09 03:10:41;;;;;;;35.17;21.10;;;0.50;99.90;;;;;;5014750;28;20131;-65
2022/12/09 03:13:30;;;;;;;42.78;22.33;;;0.50;99.90;;;;;;5011418;28;20766;-65
2022/12/09 03:16:14;;;;;;;40.97;21.58;;;0.50;99.90;;;;;;5011360;28;20778;-65
2022/12/09 03:18:46;;;;;;;40.58;21.80;;;0.50;99.90;;;;;;5013728;28;20320;-65
2022/12/09 03:21:16;;;;;;;38.67;21.75;;;0.50;99.90;;;;;;5011045;28;20570;-65
2022/12/09 03:23:45;;;;;;;36.72;21.25;;;0.60;99.90;;;;;;5013544;28;20815;-65
2022/12/09 03:26:14;;;;;;;40.63;23.33;;;0.60;99.90;;;;;;5011328;28;20054;-65
2022/12/09 03:28:47;;;;;;;44.30;23.02;;;0.60;99.90;;;;;;5016540;28;20454;-65
2022/12/09 03:31:20;;;;;;;40.70;22.60;;;0.60;99.90;;;;;;5014355;28;20078;-65
2022/12/09 03:33:51;;;;;;;38.95;21.52;;;0.60;99.90;;;;;;5019029;28;20098;-65
2022/12/09 03:36:20;;;;;;;39.85;21.83;;;0.60;99.90;;;;;;5017535;28;20470;-64
2022/12/09 03:38:50;;;;;;;40.15;22.20;;;0.60;99.90;;;;;;5014650;28;20438;-65
2022/12/09 03:41:22;;;;;;;39.97;20.75;;;0.60;99.90;;;;;;5014917;28;20864;-65
2022/12/09 03:43:54;;;;;;;35.90;19.67;;;0.60;99.90;;;;;;5016345;28;20458;-64
2022/12/09 03:46:22;;;;;;;39.95;21.75;;;0.60;99.90;;;;;;5015498;28;20049;-65
2022/12/09 03:48:49;;;;;;;35.42;20.52;;;0.50;99.90;;;;;;5022904;28;20566;-63
2022/12/09 03:51:30;;;;;;;40.10;22.67;;;0.60;99.90;;;;;;5012809;28;20056;-64
2022/12/09 03:54:04;;;;;;;53.65;26.77;;;0.50;99.90;;;;;;5012421;28;20146;-64
2022/12/09 03:56:40;;;;;;;54.40;26.88;;;0.60;99.90;;;;;;5015253;28;20056;-65
2022/12/09 03:59:13;;;;;;;58.63;29.30;;;0.60;99.90;;;;;;5014980;28;20048;-65
2022/12/09 04:01:43;;;;;;;61.58;31.40;;;0.60;99.90;;;;;;5012143;28;21119;-63
2022/12/09 04:04:12;;;;;;;61.38;31.05;;;0.60;99.90;;;;;;5012237;28;20075;-64
2022/12/09 04:06:39;;;;;;;60.17;31.17;;;0.60;99.90;;;;;;5016906;28;20146;-64
2022/12/09 04:09:06;;;;;;;;;;;0.70;99.90;;;;;;5016197;28;20583;-64
2022/12/09 04:11:33;;;;;;;71.75;34.72;;;0.70;99.90;;;;;;5015837;28;19925;-63
2022/12/09 04:14:00;;;;;;;71.57;33.13;;;0.70;99.90;;;;;;5016961;28;20052;-64
2022/12/09 04:16:27;;;;;;;69.65;34.10;;;0.60;99.90;;;;;;5014982;28;20048;-64
2022/12/09 04:18:55;;;;;;;67.57;34.80;;;0.60;99.90;;;;;;5015841;28;20041;-65
2022/12/09 04:21:22;;;;;;;68.75;35.30;;;0.60;99.90;;;;;;5015352;28;20050;-63
2022/12/09 04:23:49;;;;;;;67.97;33.30;;;0.60;99.90;;;;;;5016211;28;20064;-66
2022/12/09 04:26:20;;;;;;;73.00;36.53;;;0.60;99.90;;;;;;5013925;28;20143;-64
2022/12/09 04:28:47;;;;;;;71.80;37.08;;;0.60;99.90;;;;;;5014531;28;20057;-64
2022/12/09 04:31:16;;;;;;;75.75;39.00;;;0.60;99.90;;;;;;5016166;28;20621;-64
2022/12/09 04:33:44;;;;;;;85.63;38.05;;;0.60;99.90;;;;;;5014014;28;20132;-64
2022/12/09 04:36:14;;;;;;;74.50;37.35;;;0.70;99.90;;;;;;5014262;28;20060;-64
2022/12/09 04:38:42;;;;;;;75.05;38.10;;;0.70;99.90;;;;;;5015500;28;20048;-64
2022/12/09 04:41:10;;;;;;;74.57;38.05;;;0.70;99.90;;;;;;5014799;28;20458;-64
2022/12/09 04:43:37;;;;;;;81.15;39.78;;;0.60;99.90;;;;;;5015886;28;20075;-63
2022/12/09 04:46:06;;;;;;;92.03;41.72;;;0.60;99.90;;;;;;5012638;28;20069;-64
2022/12/09 04:48:34;;;;;;;74.68;37.00;;;0.70;99.90;;;;;;5014778;28;20845;-63
2022/12/09 04:51:01;;;;;;;77.05;36.63;;;0.60;99.90;;;;;;5012836;28;20042;-65
2022/12/09 04:53:29;;;;;;;70.82;35.47;;;0.60;99.90;;;;;;5014449;28;20044;-64
2022/12/09 04:56:04;;;;;;;72.68;36.33;;;0.70;99.90;;;;;;5015615;28;20261;-64
2022/12/09 04:58:32;;;;;;;68.05;35.47;;;0.70;99.90;;;;;;5013308;28;20534;-64
2022/12/09 05:01:08;;;;;;;87.80;40.38;;;0.70;99.90;;;;;;5012831;28;20068;-65
2022/12/09 05:03:36;;;;;;;74.60;36.67;;;0.70;99.90;;;;;;5010939;28;20569;-65
2022/12/09 05:06:05;;;;;;;87.55;38.55;;;0.70;99.90;;;;;;5015386;28;20598;-65
2022/12/09 05:08:33;;;;;;;78.70;39.60;;;0.70;99.90;;;;;;5015455;28;20538;-64
2022/12/09 05:11:00;;;;;;;79.95;39.95;;;0.70;99.90;;;;;;5014265;28;20597;-64
2022/12/09 05:13:27;;;;;;;76.30;38.55;;;0.70;99.90;;;;;;5013139;28;20045;-64
2022/12/09 05:16:06;;;;;;;88.35;39.90;;;0.70;99.90;;;;;;5011572;28;20041;-65
2022/12/09 05:18:41;;;;;;;80.47;37.13;;;0.70;99.90;;;;;;5016401;28;20548;-65
2022/12/09 05:21:12;;;;;;;82.45;39.53;;;0.70;99.90;;;;;;5014246;28;20521;-64
2022/12/09 05:23:39;;;;;;;76.03;36.28;;;0.70;99.90;;;;;;5010879;28;20045;-65
2022/12/09 05:26:09;;;;;;;68.57;35.72;;;0.70;99.90;;;;;;5012373;28;20057;-65
2022/12/09 05:28:36;;;;;;;65.57;34.40;;;0.70;99.90;;;;;;5015302;28;20139;-65
2022/12/09 05:31:06;;;;;;;64.70;32.95;;;0.70;99.90;;;;;;5011827;28;20067;-65
2022/12/09 05:33:33;;;;;;;74.28;36.33;;;0.70;99.90;;;;;;5013761;28;20507;-65
2022/12/09 05:36:00;;;;;;;70.70;36.42;;;0.70;99.90;;;;;;5013384;28;20045;-65
2022/12/09 05:38:28;;;;;;;65.70;33.40;;;0.70;99.90;;;;;;5015254;28;20224;-65
2022/12/09 05:40:58;;;;;;;78.30;37.40;;;0.70;99.90;;;;;;5014698;28;20049;-65
2022/12/09 05:43:25;;;;;;;79.93;38.88;;;0.70;99.90;;;;;;5011087;28;20045;-64
2022/12/09 05:45:52;;;;;;;70.20;35.55;;;0.70;99.90;;;;;;5013302;28;20128;-67
2022/12/09 05:48:19;;;;;;;74.57;38.55;;;0.80;99.90;;;;;;5014054;28;20522;-63
2022/12/09 05:51:08;;;;;;;76.40;37.42;;;0.80;99.90;;;;;;5014533;28;20044;-66
2022/12/09 05:53:36;;;;;;;74.30;36.92;;;0.80;99.90;;;;;;5011658;28;20869;-66
2022/12/09 05:56:04;;;;;;;81.75;37.55;;;0.80;99.90;;;;;;5012752;28;20435;-66
2022/12/09 05:58:32;;;;;;;79.25;37.72;;;0.80;99.90;;;;;;5012794;28;20504;-66
2022/12/09 06:01:07;;;;;;;81.75;39.63;;;0.90;99.90;;;;;;5011177;28;20435;-65
2022/12/09 06:03:35;;;;;;;75.15;36.38;;;0.80;99.90;;;;;;5012342;28;20049;-66
2022/12/09 06:06:11;;;;;;;74.32;37.97;;;0.80;99.90;;;;;;5012645;28;20175;-66
2022/12/09 06:08:39;;;;;;;73.72;36.63;;;0.80;99.90;;;;;;5014055;28;20273;-66
2022/12/09 06:11:12;;;;;;;80.03;38.70;;;0.90;99.90;;;;;;5011105;28;20046;-66
2022/12/09 06:13:40;;;;;;;73.60;35.03;;;0.90;99.90;;;;;;5010113;28;20037;-66
2022/12/09 06:16:08;;;;;;;83.50;37.15;;;0.90;99.90;;;;;;5012065;28;20065;-65
2022/12/09 06:18:36;;;;;;;84.90;40.47;;;0.90;99.90;;;;;;5010683;28;20657;-64
2022/12/09 06:21:08;;;;;;;79.68;38.88;;;0.90;99.90;;;;;;5013620;28;20216;-66
2022/12/09 06:23:37;;;;;;;78.30;40.05;;;0.90;99.90;;;;;;5011547;28;20049;-65
2022/12/09 06:26:04;;;;;;;75.65;37.95;;;0.90;99.90;;;;;;5009930;28;20057;-64
2022/12/09 06:28:32;;;;;;;68.05;36.30;;;0.90;99.90;;;;;;5011985;28;20060;-66
2022/12/09 06:30:59;;;;;;;75.93;37.88;;;0.90;99.90;;;;;;5008795;28;20056;-65
2022/12/09 06:33:26;;;;;;;69.22;36.55;;;0.90;99.90;;;;;;5013555;28;20570;-65
2022/12/09 06:36:13;;;;;;;72.60;35.75;;;0.90;99.90;;;;;;5011472;28;20115;-65
2022/12/09 06:38:41;;;;;;;75.75;36.75;;;0.90;99.90;;;;;;5010988;28;20412;-65
2022/12/09 06:41:10;;;;;;;73.97;36.72;;;0.90;99.90;;;;;;5003111;28;20052;-55
2022/12/09 06:43:38;;;;;;;77.90;38.30;;;0.90;99.90;;;;;;5012650;28;20311;-55
2022/12/09 06:46:17;;;;;;;82.00;40.97;;;0.90;99.90;;;;;;5012423;28;20049;-56
2022/12/09 06:48:45;;;;;;;87.80;41.25;;;0.90;99.90;;;;;;5014396;28;20040;-55
2022/12/09 06:51:13;;;;;;;86.10;41.63;;;0.90;99.90;;;;;;5017782;28;20262;-56
2022/12/09 06:53:40;;;;;;;86.25;42.25;;;0.80;99.90;;;;;;5012237;28;20649;-53
2022/12/09 06:56:09;;;;;;;91.38;40.97;;;0.80;99.90;;;;;;5009218;28;20607;-55
2022/12/09 06:58:43;;;;;;;86.80;40.10;;;0.80;99.90;;;;;;5012147;28;20060;-57
2022/12/09 07:01:17;;;;;;;69.03;34.42;;;0.80;99.90;;;;;;5007115;28;20070;-55
2022/12/09 07:03:46;;;;;;;74.65;38.13;;;0.80;99.90;;;;;;5009873;28;20851;-53
2022/12/09 07:06:30;;;;;;;69.13;38.28;;;0.80;99.90;;;;;;5013806;28;20044;-53
2022/12/09 07:09:00;;;;;;;77.07;39.55;;;0.80;99.90;;;;;;5015527;28;20149;-58
2022/12/09 07:11:28;;;;;;;77.78;39.10;;;0.80;99.90;;;;;;5016301;28;20433;-55
2022/12/09 07:13:55;;;;;;;68.63;34.42;;;0.80;99.90;;;;;;5017111;28;20483;-51
2022/12/09 07:16:22;;;;;;;69.60;36.20;;;0.80;99.90;;;;;;5014366;28;20194;-55
2022/12/09 07:18:50;;;;;;;71.97;36.38;;;0.80;99.90;;;;;;5015986;28;20448;-56
2022/12/09 07:21:19;;;;;;;75.68;37.15;;;0.80;99.90;;;;;;5014983;28;20323;-52
2022/12/09 07:23:47;;;;;;;86.15;39.58;;;0.90;99.90;;;;;;5016140;28;20063;-54
2022/12/09 07:26:15;;;;;;;83.65;38.97;;;0.90;99.90;;;;;;5017144;28;20051;-55
2022/12/09 07:28:43;;;;;;;75.55;38.03;;;0.90;99.90;;;;;;5015735;28;20049;-53
2022/12/09 07:31:24;;;;;;;82.53;40.75;;;0.90;99.90;;;;;;5018124;28;20052;-55
2022/12/09 07:33:53;;;;;;;84.25;38.15;;;0.90;99.90;;;;;;5012512;28;20045;-57
2022/12/09 07:36:22;;;;;;;79.38;37.42;;;0.90;99.90;;;;;;5015616;28;20053;-55
2022/12/09 07:38:55;;;;;;;85.60;42.55;;;0.90;99.90;;;;;;5013366;28;20038;-52
2022/12/09 07:41:23;;;;;;;86.90;41.38;;;0.90;99.90;;;;;;5013557;28;21033;-56
2022/12/09 07:43:50;;;;;;;77.88;36.75;;;0.90;99.90;;;;;;5013246;28;20049;-54
2022/12/09 07:46:19;;;;;;;85.65;41.78;;;0.90;99.90;;;;;;5015411;28;20250;-54
2022/12/09 07:48:47;;;;;;;77.80;37.72;;;0.90;99.90;;;;;;5014387;28;20076;-54
2022/12/09 07:51:15;;;;;;;77.85;37.50;;;0.90;99.90;;;;;;5014518;28;20132;-54
2022/12/09 07:53:42;;;;;;;83.32;38.95;;;0.90;99.90;;;;;;5014309;28;20726;-53
2022/12/09 07:56:16;;;;;;;76.82;38.97;;;0.90;99.90;;;;;;5016323;28;20045;-53
2022/12/09 07:58:46;;;;;;;70.60;35.97;;;0.90;99.90;;;;;;5041203;28;20253;-53
2022/12/09 08:01:16;;;;;;;76.95;37.60;;;0.90;99.90;;;;;;5015835;28;20475;-54
2022/12/09 08:03:43;;;;;;;73.45;37.10;;;0.90;99.90;;;;;;5014982;28;20044;-55
2022/12/09 08:06:13;;;;;;;72.10;37.65;;;0.90;99.90;;;;;;5012680;28;20414;-53
2022/12/09 08:08:42;;;;;;;71.65;36.33;;;1.00;99.90;;;;;;5031505;28;20380;-53
2022/12/09 08:11:12;;;;;;;67.28;35.03;;;1.00;99.90;;;;;;5014066;28;20033;-54
2022/12/09 08:13:43;;;;;;;75.88;38.47;;;1.00;99.90;;;;;;5011774;28;20538;-53
2022/12/09 08:16:12;;;;;;;76.13;36.38;;;1.00;99.90;;;;;;5013332;28;20042;-55
2022/12/09 08:18:40;;;;;;;78.57;39.97;;;1.10;99.90;;;;;;5013964;28;20041;-54
2022/12/09 08:21:16;;;;;;;73.47;37.25;;;1.10;99.90;;;;;;5013372;28;20771;-55
2022/12/09 08:23:44;;;;;;;68.38;35.25;;;1.10;99.90;;;;;;5012396;28;20487;-54
2022/12/09 08:26:12;;;;;;;72.25;38.38;;;1.10;99.90;;;;;;5014126;28;20110;-54
2022/12/09 08:28:40;;;;;;;75.78;38.75;;;1.10;99.90;;;;;;5012949;28;20475;-55
2022/12/09 08:31:13;;;;;;;79.10;38.67;;;1.20;99.90;;;;;;5013886;28;20243;-56
2022/12/09 08:33:41;;;;;;;77.18;37.88;;;1.10;99.90;;;;;;5012696;28;20140;-55
2022/12/09 08:36:14;;;;;;;70.50;37.58;;;1.10;99.90;;;;;;5012545;28;20072;-54
2022/12/09 08:38:42;;;;;;;81.78;38.17;;;1.20;99.90;;;;;;5013600;28;20539;-56
2022/12/09 08:41:33;;;;;;;77.68;37.25;;;1.10;99.90;;;;;;5012507;28;20076;-53
2022/12/09 08:44:04;;;;;;;77.00;37.20;;;1.20;99.90;;;;;;5016473;28;20057;-52
2022/12/09 08:46:33;;;;;;;68.28;35.05;;;1.20;99.90;;;;;;5012987;28;20490;-54
2022/12/09 08:49:00;;;;;;;77.80;37.10;;;1.20;99.90;;;;;;5012380;28;20049;-54
2022/12/09 08:51:29;;;;;;;82.03;39.42;;;1.20;99.90;;;;;;5013817;28;20103;-51
2022/12/09 08:53:57;;;;;;;78.45;37.83;;;1.20;99.90;;;;;;5012812;28;20041;-52
2022/12/09 08:56:25;;;;;;;73.57;36.72;;;1.20;99.90;;;;;;5011247;28;20442;-53
2022/12/09 08:58:53;;;;;;;77.25;38.60;;;1.20;99.90;;;;;;5014128;28;20041;-54
2022/12/09 09:01:24;;;;;;;72.00;34.58;;;1.20;99.90;;;;;;5012152;28;20059;-55
2022/12/09 09:03:52;;;;;;;69.25;35.97;;;1.30;99.90;;;;;;5013796;28;20493;-54
2022/12/09 09:06:19;;;;;;;68.65;36.58;;;1.30;99.90;;;;;;5011978;28;20095;-55
2022/12/09 09:08:47;;;;;;;74.22;35.75;;;1.30;99.90;;;;;;5010928;28;20502;-57
2022/12/09 09:11:17;;;;;;;71.40;38.50;;;1.20;99.90;;;;;;5013569;28;20517;-52
2022/12/09 09:13:47;;;;;;;72.88;36.17;;;1.30;99.90;;;;;;5011973;28;20114;-55
2022/12/09 09:16:18;;;;;;;74.95;37.08;;;1.30;99.90;;;;;;5013227;28;20040;-53
2022/12/09 09:18:45;;;;;;;73.93;36.92;;;1.30;99.90;;;;;;5014255;28;20575;-53
2022/12/09 09:21:16;;;;;;;74.25;37.70;;;1.30;99.90;;;;;;5013536;28;20508;-53
2022/12/09 09:23:43;;;;;;;74.63;38.42;;;1.30;99.90;;;;;;5012996;28;20466;-50
2022/12/09 09:26:13;;;;;;;78.50;38.17;;;1.30;99.90;;;;;;5012289;28;20381;-53
2022/12/09 09:28:41;;;;;;;80.38;40.28;;;1.30;99.90;;;;;;5020343;28;20574;-54
2022/12/09 09:31:12;;;;;;;76.10;37.05;;;1.40;99.90;;;;;;5013035;28;20033;-55
2022/12/09 09:33:39;;;;;;;79.68;38.65;;;1.30;99.90;;;;;;5010215;28;20049;-54
2022/12/09 09:36:11;;;;;;;71.97;37.70;;;1.30;99.90;;;;;;5012785;28;20191;-54
2022/12/09 09:38:38;;;;;;;73.40;36.35;;;1.30;99.90;;;;;;5020599;28;20377;-56
2022/12/09 09:41:24;;;;;;;69.18;34.70;;;1.30;99.90;;;;;;5014388;28;20046;-54
2022/12/09 09:43:52;;;;;;;76.13;36.63;;;1.30;99.90;;;;;;5013337;28;20045;-54
2022/12/09 09:46:28;;;;;;;70.07;35.72;;;1.30;99.90;;;;;;5013131;28;20239;-53
2022/12/09 09:48:56;;;;;;;77.70;38.30;;;1.40;99.90;;;;;;5013502;28;20466;-54
2022/12/09 09:51:23;;;;;;;75.15;37.20;;;1.40;99.90;;;;;;5010628;28;20076;-54
2022/12/09 09:53:51;;;;;;;76.97;39.53;;;1.40;99.90;;;;;;5012590;28;20572;-54
2022/12/09 09:56:27;;;;;;;72.68;37.72;;;1.40;99.90;;;;;;5013308;28;20182;-54
2022/12/09 09:59:18;;;;;;;78.80;37.35;;;1.40;99.90;;;;;;5013502;28;20041;-52
2022/12/09 10:01:59;;;;;;;72.00;37.22;;;1.40;99.90;;;;;;5011652;28;20076;-54
2022/12/09 10:04:55;;;;;;;79.43;38.15;;;1.50;99.90;;;;;;5010144;28;20107;-55
2022/12/09 10:07:41;;;;;;;72.40;35.45;;;1.50;99.90;;;;;;5008201;28;20049;-55
2022/12/09 10:10:34;;;;;;;79.78;35.35;;;1.50;99.90;;;;;;5012057;28;20438;-54
2022/12/09 10:13:23;;;;;;;62.92;33.67;;;1.50;99.90;;;;;;5012908;28;20598;-54
2022/12/09 10:16:01;;;;;;;72.40;34.17;;;1.50;99.90;;;;;;5010909;28;20091;-55
2022/12/09 10:18:37;;;;;;;67.53;34.70;;;1.50;99.90;;;;;;5013857;28;20542;-54
2022/12/09 10:21:17;;;;;;;72.10;36.03;;;1.50;99.90;;;;;;5016130;28;20128;-52
2022/12/09 10:23:45;;;;;;;69.53;36.28;;;1.60;99.90;;;;;;5027461;28;20056;-53
2022/12/09 10:26:25;;;;;;;68.65;35.60;;;1.60;99.90;;;;;;5012991;28;20049;-53
2022/12/09 10:29:15;;;;;;;69.85;36.00;;;1.60;99.90;;;;;;5013102;28;20457;-53
2022/12/09 10:31:42;;;;;;;68.40;36.53;;;1.60;99.90;;;;;;5013091;28;20060;-54
2022/12/09 10:34:10;;;;;;;66.07;35.08;;;1.70;99.90;;;;;;5015751;28;20283;-53
2022/12/09 10:36:44;;;;;;;64.68;32.92;;;1.70;99.90;;;;;;5013440;28;20049;-52
2022/12/09 10:39:19;;;;;;;57.38;33.60;;;1.80;99.90;;;;;;5011232;28;20049;-55
2022/12/09 10:44:38;;;;;;;72.38;36.08;;;1.90;99.90;;;;;;5011972;28;20486;-54
2022/12/09 10:47:27;;;;;;;62.30;31.98;;;1.90;99.90;;;;;;5012149;28;20045;-52
2022/12/09 10:49:57;;;;;;;64.20;33.53;;;2.00;99.90;;;;;;5003517;28;20044;-53
2022/12/09 10:52:29;;;;;;;59.58;30.27;;;2.00;99.90;;;;;;5009903;28;20069;-54
2022/12/09 10:54:56;;;;;;;60.03;33.03;;;2.10;99.90;;;;;;5013229;28;20336;-54
2022/12/09 10:57:26;;;;;;;64.68;32.25;;;2.20;99.90;;;;;;5009331;28;20046;-53
2022/12/09 11:00:19;;;;;;;56.70;31.38;;;2.30;99.90;;;;;;5010455;28;20537;-54
2022/12/09 11:02:52;;;;;;;61.80;33.38;;;2.30;99.90;;;;;;5012316;28;20068;-54
2022/12/09 11:05:26;;;;;;;59.47;32.97;;;2.40;99.90;;;;;;5011596;28;20056;-51
2022/12/09 11:07:56;;;;;;;63.33;34.60;;;2.40;99.90;;;;;;5011604;28;20140;-60
2022/12/09 11:10:26;;;;;;;59.88;32.33;;;2.40;99.90;;;;;;5013543;28;20049;-53
2022/12/09 11:13:06;;;;;;;54.10;30.02;;;2.50;99.90;;;;;;5011447;28;20042;-51
2022/12/09 11:15:40;;;;;;;52.92;30.52;;;2.50;99.90;;;;;;5013032;28;20329;-54
2022/12/09 11:18:15;;;;;;;55.97;31.75;;;2.50;99.90;;;;;;5011416;28;20252;-54
2022/12/09 11:20:54;;;;;;;57.83;31.13;;;2.50;99.90;;;;;;5011427;28;20279;-53
2022/12/09 11:23:21;;;;;;;59.92;31.48;;;2.50;99.90;;;;;;5012403;28;20495;-55
2022/12/09 11:25:53;;;;;;;56.10;30.00;;;2.50;99.90;;;;;;5010664;28;20049;-55
2022/12/09 11:28:30;;;;;;;62.70;31.08;;;2.50;99.90;;;;;;5010304;28;20044;-52
2022/12/09 11:31:02;;;;;;;58.85;31.65;;;2.50;99.90;;;;;;5010257;28;20162;-52
2022/12/09 11:33:53;;;;;;;53.25;29.60;;;2.50;99.90;;;;;;5013186;28;20060;-53
2022/12/09 11:36:25;;;;;;;58.00;31.75;;;2.50;99.90;;;;;;5012782;28;20048;-51
2022/12/09 11:39:26;;;;;;;58.45;31.33;;;2.50;99.90;;;;;;5041258;28;20416;-53
2022/12/09 11:42:12;;;;;;;58.85;30.60;;;2.50;99.90;;;;;;5010382;28;20057;-53
2022/12/09 11:45:18;;;;;;;59.72;30.33;;;2.60;99.90;;;;;;5018400;28;20082;-52
2022/12/09 11:47:46;;;;;;;58.72;31.10;;;2.60;99.90;;;;;;5011459;28;20128;-52
2022/12/09 11:50:36;;;;;;;51.33;29.15;;;2.60;99.90;;;;;;5011070;28;20331;-54
2022/12/09 11:53:27;;;;;;;51.13;28.10;;;2.60;99.90;;;;;;5015269;28;20068;-52
2022/12/09 11:56:06;;;;;;;52.50;29.52;;;2.60;99.90;;;;;;5045632;28;20546;-54
2022/12/09 11:58:58;;;;;;;48.58;26.27;;;2.50;99.90;;;;;;5016942;28;20770;-54
2022/12/09 12:01:45;;;;;;;51.03;28.73;;;2.50;99.90;;;;;;5014127;28;20129;-56
2022/12/09 12:04:22;;;;;;;51.58;27.92;;;2.50;99.90;;;;;;5012147;28;20087;-54
2022/12/09 12:07:24;;;;;;;53.47;29.17;;;2.50;99.90;;;;;;5015636;28;20056;-52
2022/12/09 12:09:57;;;;;;;48.88;27.45;;;2.50;99.90;;;;;;5004852;28;20057;-55
2022/12/09 12:12:42;;;;;;;50.97;28.63;;;2.50;99.90;;;;;;5045793;28;20042;-52
2022/12/09 12:15:18;;;;;;;48.63;27.38;;;2.50;99.90;;;;;;5012906;28;20124;-55
2022/12/09 12:17:50;;;;;;;47.05;26.80;;;2.40;99.90;;;;;;5011822;28;20380;-53
2022/12/09 12:20:17;;;;;;;51.35;27.83;;;2.40;99.90;;;;;;5014467;28;20577;-54
2022/12/09 12:23:24;;;;;;;45.78;26.88;;;2.50;99.90;;;;;;5013690;28;20050;-55
2022/12/09 12:26:14;;;;;;;51.50;28.52;;;2.50;99.90;;;;;;5017884;28;20636;-53
2022/12/09 12:28:53;;;;;;;46.40;25.58;;;2.50;99.90;;;;;;5012997;28;20115;-54
2022/12/09 12:31:33;;;;;;;50.22;29.25;;;2.60;99.90;;;;;;5015280;28;20045;-54
2022/12/09 12:34:07;;;;;;;51.83;29.23;;;2.60;99.90;;;;;;5014313;28;20069;-53
2022/12/09 12:37:05;;;;;;;51.90;27.75;;;2.70;99.90;;;;;;5011915;28;20089;-55
2022/12/09 12:39:44;;;;;;;46.90;27.55;;;2.60;99.90;;;;;;5013331;28;20066;-53
2022/12/09 12:46:15;;;;;;;43.67;26.10;;;2.60;99.90;;;;;;5013149;28;20131;-52
2022/12/09 12:46:16;;;;;;;44.38;26.08;;;2.60;99.90;;;;;;5012562;28;20176;-54
2022/12/09 12:48:49;;;;;;;46.70;24.98;;;2.60;99.90;;;;;;5014942;28;20055;-52
2022/12/09 12:51:39;;;;;;;45.50;24.90;;;2.60;99.90;;;;;;5010318;28;20245;-53
2022/12/09 12:54:31;;;;;;;45.08;25.42;;;2.60;99.90;;;;;;5014521;28;20045;-55
2022/12/09 12:57:09;;;;;;;44.63;24.52;;;2.60;99.90;;;;;;5013932;28;20440;-53
2022/12/09 13:00:09;;;;;;;48.78;26.35;;;2.50;99.90;;;;;;5010065;28;20478;-52
2022/12/09 13:02:49;;;;;;;43.20;25.20;;;2.50;99.90;;;;;;5012353;28;20068;-55
2022/12/09 13:05:32;;;;;;;44.08;24.75;;;2.50;99.90;;;;;;5014793;28;20593;-53
2022/12/09 13:08:17;;;;;;;45.95;25.83;;;2.50;99.90;;;;;;5011408;28;20316;-53
2022/12/09 13:10:51;;;;;;;45.95;26.60;;;2.50;99.90;;;;;;5007398;28;20064;-53
2022/12/09 13:13:24;;;;;;;50.90;28.08;;;2.50;99.90;;;;;;5013055;28;20407;-52